createdAt,value
2017-12-05T00:00:52.750Z,41.60
2017-12-05T00:03:28.866Z,36.97
2017-12-05T00:06:00.325Z,44.22
2017-12-05T00:08:32.642Z,39.08
2017-12-05T00:11:02.469Z,38.70
2017-12-05T00:13:36.374Z,35.10
2017-12-05T00:16:07.313Z,39.80
2017-12-05T00:18:39.802Z,40.73
2017-12-05T00:21:13.255Z,45.73
2017-12-05T00:23:58.528Z,39.27
2017-12-05T00:26:32.934Z,35.80
2017-12-05T00:29:06.412Z,37.13
2017-12-05T00:31:40.254Z,37.63
2017-12-05T00:34:12.381Z,34.87
2017-12-05T00:36:44.630Z,43.40
2017-12-05T00:39:14.706Z,35.20
2017-12-05T00:41:46.322Z,35.20
2017-12-05T00:44:18.359Z,36.90
2017-12-05T00:46:53.557Z,38.08
2017-12-05T00:49:23.431Z,37.67
2017-12-05T00:51:57.593Z,33.77
2017-12-05T00:54:35.472Z,38.17
2017-12-05T00:57:07.371Z,39.13
2017-12-05T00:59:38.780Z,37.83
2017-12-05T01:02:09.433Z,37.40
2017-12-05T01:04:43.256Z,36.70
2017-12-05T01:07:13.859Z,30.48
2017-12-05T01:09:49.367Z,36.60
2017-12-05T01:12:21.401Z,35.53
2017-12-05T01:14:59.443Z,37.47
2017-12-05T01:17:31.949Z,36.08
2017-12-05T01:20:07.701Z,40.30
2017-12-05T01:22:37.440Z,30.43
2017-12-05T01:25:14.134Z,37.77
2017-12-05T01:27:47.775Z,33.90
2017-12-05T01:30:18.043Z,31.58
2017-12-05T01:32:49.594Z,34.25
2017-12-05T01:35:26.467Z,32.37
2017-12-05T01:37:59.390Z,37.63
2017-12-05T01:40:31.610Z,30.80
2017-12-05T01:43:03.309Z,36.53
2017-12-05T01:45:42.170Z,33.00
2017-12-05T01:48:16.502Z,35.63
2017-12-05T01:50:48.277Z,35.03
2017-12-05T01:53:22.319Z,33.20
2017-12-05T01:55:53.611Z,38.03
2017-12-05T01:58:24.732Z,31.40
2017-12-05T02:00:55.259Z,30.40
2017-12-05T02:03:28.392Z,35.30
2017-12-05T02:06:09.200Z,29.10
2017-12-05T02:08:41.788Z,37.33
2017-12-05T02:11:14.660Z,30.16
2017-12-05T02:13:46.156Z,27.90
2017-12-05T02:16:18.107Z,32.33
2017-12-05T02:18:50.428Z,27.03
2017-12-05T02:21:28.810Z,30.27
2017-12-05T02:23:59.619Z,35.55
2017-12-05T02:26:32.794Z,32.77
2017-12-05T02:29:04.469Z,27.57
2017-12-05T02:31:37.541Z,32.00
2017-12-05T02:34:09.653Z,32.70
2017-12-05T02:36:41.245Z,31.00
2017-12-05T02:39:12.391Z,31.03
2017-12-05T02:41:45.777Z,29.00
2017-12-05T02:44:16.930Z,30.90
2017-12-05T02:46:54.581Z,30.52
2017-12-05T02:49:28.006Z,28.40
2017-12-05T02:52:00.834Z,29.73
2017-12-05T02:54:33.381Z,32.08
2017-12-05T02:57:06.861Z,35.37
2017-12-05T02:59:39.328Z,28.47
2017-12-05T03:02:14.329Z,31.27
2017-12-05T03:04:46.120Z,26.30
2017-12-05T03:07:18.979Z,31.15
2017-12-05T03:09:51.652Z,22.37
2017-12-05T03:12:25.361Z,24.00
2017-12-05T03:14:56.456Z,30.83
2017-12-05T03:17:28.499Z,26.17
2017-12-05T03:19:58.790Z,26.33
2017-12-05T03:22:31.337Z,27.27
2017-12-05T03:25:02.110Z,27.67
2017-12-05T03:27:33.605Z,24.97
2017-12-05T03:30:05.920Z,30.67
2017-12-05T03:32:39.905Z,27.67
2017-12-05T03:35:22.370Z,24.73
2017-12-05T03:37:57.379Z,26.63
2017-12-05T03:40:32.509Z,27.37
2017-12-05T03:43:04.268Z,25.40
2017-12-05T03:45:44.969Z,27.60
2017-12-05T03:48:17.820Z,27.57
2017-12-05T03:50:49.580Z,25.05
2017-12-05T03:53:22.680Z,30.77
2017-12-05T03:55:57.790Z,25.27
2017-12-05T03:58:29.248Z,25.80
2017-12-05T04:01:02.152Z,28.50
2017-12-05T04:03:35.353Z,23.10
2017-12-05T04:06:07.160Z,29.43
2017-12-05T04:08:36.684Z,25.33
2017-12-05T04:11:06.231Z,23.58
2017-12-05T04:13:37.268Z,29.43
2017-12-05T04:16:07.378Z,25.47
2017-12-05T04:18:39.968Z,23.47
2017-12-05T04:21:10.351Z,25.77
2017-12-05T04:23:42.230Z,35.20
2017-12-05T04:26:20.451Z,25.10
2017-12-05T04:28:50.361Z,28.40
2017-12-05T04:31:20.469Z,28.42
2017-12-05T04:33:50.351Z,25.95
2017-12-05T04:36:21.095Z,24.15
2017-12-05T04:38:52.532Z,29.77
2017-12-05T04:41:24.708Z,30.60
2017-12-05T04:43:54.707Z,23.92
2017-12-05T04:46:26.469Z,27.90
2017-12-05T04:48:56.227Z,28.98
2017-12-05T04:51:26.489Z,27.60
2017-12-05T04:53:57.431Z,28.90
2017-12-05T04:56:27.393Z,27.00
2017-12-05T04:58:57.284Z,29.40
2017-12-05T05:01:27.076Z,28.60
2017-12-05T05:03:56.636Z,27.20
2017-12-05T05:06:30.368Z,27.37
2017-12-05T05:09:00.339Z,27.27
2017-12-05T05:11:31.904Z,29.63
2017-12-05T05:14:02.728Z,25.02
2017-12-05T05:16:34.458Z,22.67
2017-12-05T05:19:05.294Z,31.13
2017-12-05T05:21:35.749Z,25.83
2017-12-05T05:24:24.312Z,29.37
2017-12-05T05:26:54.203Z,26.45
2017-12-05T05:29:25.441Z,24.17
2017-12-05T05:32:01.626Z,25.88
2017-12-05T05:34:33.090Z,27.08
2017-12-05T05:37:23.195Z,33.08
2017-12-05T05:40:02.862Z,31.55
2017-12-05T05:42:36.289Z,23.40
2017-12-05T05:45:10.558Z,24.57
2017-12-05T05:47:41.344Z,27.83
2017-12-05T05:50:14.017Z,25.90
2017-12-05T05:52:46.465Z,24.47
2017-12-05T05:55:23.375Z,21.20
2017-12-05T05:57:54.861Z,24.60
2017-12-05T06:00:29.176Z,27.60
2017-12-05T06:03:04.350Z,23.00
2017-12-05T06:05:36.260Z,26.47
2017-12-05T06:08:08.684Z,24.57
2017-12-05T06:10:39.982Z,23.62
2017-12-05T06:13:11.714Z,24.87
2017-12-05T06:15:59.175Z,18.83
2017-12-05T06:18:52.648Z,21.37
2017-12-05T06:21:29.386Z,24.83
2017-12-05T06:24:01.637Z,22.98
2017-12-05T06:26:34.804Z,18.43
2017-12-05T06:29:06.760Z,19.67
2017-12-05T06:31:39.315Z,21.97
2017-12-05T06:34:09.107Z,20.20
2017-12-05T06:36:41.779Z,20.42
2017-12-05T06:39:12.037Z,25.10
2017-12-05T06:41:44.413Z,19.27
2017-12-05T06:44:16.846Z,18.47
2017-12-05T06:46:48.229Z,22.67
2017-12-05T06:49:18.684Z,20.20
2017-12-05T06:51:48.116Z,20.17
2017-12-05T06:54:20.180Z,19.90
2017-12-05T06:56:50.275Z,19.98
2017-12-05T06:59:22.287Z,23.45
2017-12-05T07:01:53.174Z,20.67
2017-12-05T07:04:24.132Z,18.48
2017-12-05T07:06:54.456Z,17.80
2017-12-05T07:09:26.072Z,24.98
2017-12-05T07:11:57.211Z,19.90
2017-12-05T07:14:27.446Z,19.77
2017-12-05T07:16:58.064Z,17.23
2017-12-05T07:19:28.671Z,20.60
2017-12-05T07:21:59.665Z,16.70
2017-12-05T07:24:30.375Z,15.82
2017-12-05T07:27:00.558Z,18.73
2017-12-05T07:29:31.395Z,17.93
2017-12-05T07:32:02.283Z,12.40
2017-12-05T07:34:35.387Z,16.87
2017-12-05T07:37:07.065Z,13.50
2017-12-05T07:39:37.242Z,15.17
2017-12-05T07:42:11.201Z,13.77
2017-12-05T07:44:46.038Z,20.03
2017-12-05T07:47:16.214Z,15.83
2017-12-05T07:49:47.099Z,28.00
2017-12-05T07:52:17.577Z,33.30
2017-12-05T07:54:51.692Z,27.60
2017-12-05T07:57:21.780Z,18.70
2017-12-05T07:59:55.276Z,21.27
2017-12-05T08:02:26.456Z,26.53
2017-12-05T08:04:56.268Z,24.00
2017-12-05T08:07:30.542Z,31.67
2017-12-05T08:10:11.277Z,27.53
2017-12-05T08:12:42.636Z,25.00
2017-12-05T08:15:14.287Z,25.20
2017-12-05T08:17:46.575Z,22.53
2017-12-05T08:20:17.317Z,18.50
2017-12-05T08:22:47.891Z,17.23
2017-12-05T08:25:18.127Z,16.60
2017-12-05T08:27:48.472Z,18.27
2017-12-05T08:30:19.418Z,15.87
2017-12-05T08:32:49.425Z,19.23
2017-12-05T08:35:19.090Z,11.90
2017-12-05T08:37:50.380Z,15.55
2017-12-05T08:40:21.700Z,15.80
2017-12-05T08:42:52.480Z,17.50
2017-12-05T08:45:22.632Z,14.35
2017-12-05T08:47:57.776Z,14.00
2017-12-05T08:50:28.200Z,14.80
2017-12-05T08:53:01.174Z,18.02
2017-12-05T08:55:31.382Z,18.08
2017-12-05T08:58:01.047Z,18.50
2017-12-05T09:00:31.111Z,19.12
2017-12-05T09:03:00.976Z,13.73
2017-12-05T09:05:34.681Z,19.07
2017-12-05T09:08:04.643Z,15.23
2017-12-05T09:10:36.204Z,13.70
2017-12-05T09:13:07.155Z,18.43
2017-12-05T09:15:37.205Z,18.43
2017-12-05T09:18:08.240Z,16.23
2017-12-05T09:20:38.455Z,16.30
2017-12-05T09:23:09.685Z,16.33
2017-12-05T09:25:40.244Z,15.37
2017-12-05T09:28:10.314Z,14.03
2017-12-05T09:30:46.474Z,13.17
2017-12-05T09:33:16.375Z,12.63
2017-12-05T09:35:46.086Z,13.10
2017-12-05T09:38:17.625Z,10.48
2017-12-05T09:40:48.416Z,11.67
2017-12-05T09:43:19.761Z,12.27
2017-12-05T09:45:51.080Z,16.37
2017-12-05T09:48:25.306Z,16.50
2017-12-05T09:50:55.098Z,18.70
2017-12-05T09:53:24.700Z,23.80
2017-12-05T09:55:56.140Z,23.97
2017-12-05T09:58:26.400Z,28.63
2017-12-05T10:00:58.730Z,33.50
2017-12-05T10:03:28.230Z,42.43
2017-12-05T10:05:58.064Z,36.75
2017-12-05T10:08:28.723Z,46.42
2017-12-05T10:10:59.041Z,40.80
2017-12-05T10:13:29.145Z,41.97
2017-12-05T10:15:59.676Z,42.67
2017-12-05T10:18:29.255Z,34.80
2017-12-05T10:20:59.449Z,35.47
2017-12-05T10:23:29.695Z,33.20
2017-12-05T10:26:00.951Z,31.83
2017-12-05T10:28:32.727Z,25.93
2017-12-05T10:31:04.335Z,22.77
2017-12-05T10:33:37.063Z,19.67
2017-12-05T10:36:07.056Z,24.53
2017-12-05T10:38:37.197Z,22.70
2017-12-05T10:41:08.592Z,22.23
2017-12-05T10:46:17.759Z,25.10
2017-12-05T10:48:48.308Z,26.07
2017-12-05T10:51:18.200Z,22.27
2017-12-05T10:53:48.315Z,26.20
2017-12-05T10:56:18.450Z,27.97
2017-12-05T10:58:55.631Z,26.20
2017-12-05T11:01:28.476Z,27.43
2017-12-05T11:04:00.452Z,29.10
2017-12-05T11:06:31.614Z,25.20
2017-12-05T11:09:01.400Z,29.87
2017-12-05T11:11:32.101Z,29.23
2017-12-05T11:14:03.429Z,29.93
2017-12-05T11:16:34.525Z,28.35
2017-12-05T11:19:05.124Z,26.98
2017-12-05T11:21:40.417Z,26.47
2017-12-05T11:24:10.367Z,24.23
2017-12-05T11:26:42.367Z,23.87
2017-12-05T11:29:12.180Z,29.27
2017-12-05T11:31:42.140Z,25.13
2017-12-05T11:34:14.741Z,28.27
2017-12-05T11:36:48.130Z,33.17
2017-12-05T11:39:18.316Z,25.43
2017-12-05T11:41:48.795Z,28.40
2017-12-05T11:44:20.460Z,23.87
2017-12-05T11:46:50.278Z,24.83
2017-12-05T11:49:20.744Z,25.75
2017-12-05T11:51:50.452Z,24.57
2017-12-05T11:54:28.602Z,26.43
2017-12-05T11:56:58.156Z,20.77
2017-12-05T11:59:28.337Z,20.30
2017-12-05T12:01:59.163Z,20.85
2017-12-05T12:04:29.416Z,23.90
2017-12-05T12:06:59.462Z,18.70
2017-12-05T12:09:29.357Z,24.70
2017-12-05T12:12:00.626Z,20.12
2017-12-05T12:14:30.332Z,29.00
2017-12-05T12:17:00.239Z,19.30
2017-12-05T12:19:34.241Z,18.20
2017-12-05T12:22:04.822Z,21.55
2017-12-05T12:24:35.051Z,19.77
2017-12-05T12:27:06.795Z,22.00
2017-12-05T12:29:36.723Z,16.17
2017-12-05T12:32:08.096Z,19.23
2017-12-05T12:34:40.318Z,21.83
2017-12-05T12:37:11.287Z,18.70
2017-12-05T22:33:01.770Z,13.90
2017-12-05T22:35:33.552Z,13.57
2017-12-05T22:38:04.698Z,13.15
2017-12-05T22:40:36.402Z,15.20
2017-12-05T22:43:07.633Z,15.13
2017-12-05T22:45:40.177Z,13.03
2017-12-05T22:48:13.422Z,13.07
2017-12-05T22:50:44.604Z,12.43
2017-12-05T22:53:16.743Z,15.13
2017-12-05T22:55:48.362Z,10.90
2017-12-05T22:58:20.458Z,13.63
2017-12-05T23:01:03.264Z,11.20
2017-12-05T23:03:36.428Z,12.50
2017-12-05T23:06:14.969Z,13.97
2017-12-05T23:08:53.004Z,11.83
2017-12-05T23:11:28.134Z,12.57
2017-12-05T23:14:00.649Z,12.93
2017-12-05T23:16:32.198Z,13.32
2017-12-05T23:19:07.625Z,10.73
2017-12-05T23:21:42.358Z,10.40
2017-12-05T23:24:17.763Z,11.57
2017-12-05T23:26:55.607Z,12.67
2017-12-05T23:29:35.552Z,10.47
2017-12-05T23:32:08.438Z,10.57
2017-12-05T23:34:45.920Z,11.80
2017-12-05T23:37:27.467Z,13.07
2017-12-05T23:40:00.420Z,11.80
2017-12-05T23:42:37.180Z,10.53
2017-12-05T23:45:13.647Z,14.03
